Terminal Aerodrome Forecast
Issued by NWS

Home | Current Version | Previous Version | Graphics & Text | Print | Product List | Glossary On
Versions: 1 2 3 4 5 6 7 8 9 10 11 12 13 14 15 16 17 18 19 20 21 22 23 24 25 26 27 28 29 30 31 32 33 34 35 36 37
000
FTUS43 KLOT 311100 AAA
TAFDPA
TAF AMD
KDPA 311149Z 3112/0112 00000KT 3SM BR SCT003 BKN030
      TEMPO 3112/3114 1/4SM FG VV002
     FM311400 20006KT P6SM SCT030
     FM010200 17005KT P6SM SCT080=

USA.gov is the U.S. government's official web portal to all federal, state and local government web resources and services.